Time;durP1;ratioP1;P1;durP2;ratioP2;P2;SDS_P1;SDS_P2;PMS_P1;PMS_P2;Temp;Humidity;BMP_temperature;BMP_pressure;BME280_temperature;BME280_humidity;BME280_pressure;Samples;Min_cycle;Max_cycle;Signal;HPM_P1;HPM_P2
2022/05/03 00:02:20;;;;;;;7.60;6.10;;;;;;;;;;5029170;28;20403;-82
2022/05/03 00:04:48;;;;;;;7.30;5.80;;;;;;;;;;4988587;28;20448;-82
2022/05/03 00:07:20;;;;;;;7.83;6.70;;;;;;;;;;4988099;28;20417;-82
2022/05/03 00:10:06;;;;;;;7.73;6.40;;;;;;;;;;5010650;28;20432;-82
2022/05/03 00:12:42;;;;;;;7.27;6.40;;;;;;;;;;5028905;28;20399;-82
2022/05/03 00:15:09;;;;;;;8.17;7.27;;;;;;;;;;5028818;28;20408;-82
2022/05/03 00:17:35;;;;;;;7.60;6.20;;;;;;;;;;5028349;28;20407;-82
2022/05/03 00:20:03;;;;;;;7.03;6.30;;;;;;;;;;5028135;28;20477;-82
2022/05/03 00:22:31;;;;;;;11.03;6.70;;;;;;;;;;5028269;28;20411;-82
2022/05/03 00:24:57;;;;;;;6.50;5.80;;;;;;;;;;5031391;28;20419;-81
2022/05/03 00:27:25;;;;;;;8.20;6.70;;;;;;;;;;5035695;28;20406;-80
2022/05/03 00:29:55;;;;;;;8.57;6.10;;;;;;;;;;5031157;28;20450;-82
2022/05/03 00:32:22;;;;;;;8.43;5.93;;;;;;;;;;5028568;28;20415;-82
2022/05/03 00:34:49;;;;;;;7.77;6.30;;;;;;;;;;5028215;28;20403;-82
2022/05/03 00:37:15;;;;;;;7.90;6.53;;;;;;;;;;5028652;28;20411;-82
2022/05/03 00:39:41;;;;;;;9.33;6.67;;;;;;;;;;5028532;28;20489;-82
2022/05/03 00:42:07;;;;;;;9.27;6.57;;;;;;;;;;5028784;28;20431;-82
2022/05/03 00:47:34;;;;;;;7.17;6.33;;;;;;;;;;5028385;28;20419;-82
2022/05/03 00:50:04;;;;;;;8.73;6.53;;;;;;;;;;5027874;28;20507;-82
2022/05/03 00:52:42;;;;;;;7.20;5.60;;;;;;;;;;5028253;28;20411;-82
2022/05/03 00:55:29;;;;;;;9.13;6.10;;;;;;;;;;5028116;28;20423;-82
2022/05/03 00:58:01;;;;;;;7.10;5.53;;;;;;;;;;5007352;28;20408;-82
2022/05/03 01:00:27;;;;;;;10.37;6.43;;;;;;;;;;5027676;28;20450;-82
2022/05/03 01:03:19;;;;;;;6.47;5.80;;;;;;;;;;5024053;28;20427;-82
2022/05/03 01:05:49;;;;;;;6.80;5.17;;;;;;;;;;5011877;28;20431;-82
2022/05/03 01:08:35;;;;;;;7.20;6.50;;;;;;;;;;5009925;28;20393;-82
2022/05/03 01:11:17;;;;;;;6.80;5.97;;;;;;;;;;4999295;28;20408;-82
2022/05/03 01:13:46;;;;;;;10.83;5.70;;;;;;;;;;5009430;28;20587;-81
2022/05/03 01:16:20;;;;;;;6.83;6.03;;;;;;;;;;5008376;28;20415;-82
2022/05/03 01:19:01;;;;;;;6.87;5.40;;;;;;;;;;5007959;28;20455;-82
2022/05/03 01:21:33;;;;;;;6.50;5.63;;;;;;;;;;5007657;28;20424;-82
2022/05/03 01:24:12;;;;;;;6.30;5.57;;;;;;;;;;5007884;28;20404;-82
2022/05/03 01:26:52;;;;;;;6.07;4.50;;;;;;;;;;5007596;28;20404;-82
2022/05/03 01:29:28;;;;;;;6.60;4.80;;;;;;;;;;5007274;28;20476;-82
2022/05/03 01:31:57;;;;;;;6.27;4.93;;;;;;;;;;5008283;28;20420;-82
2022/05/03 01:34:24;;;;;;;6.43;5.10;;;;;;;;;;5007936;28;20400;-82
2022/05/03 01:36:50;;;;;;;9.40;5.63;;;;;;;;;;5007659;28;20436;-82
2022/05/03 01:39:35;;;;;;;7.60;5.73;;;;;;;;;;5007436;28;20968;-82
2022/05/03 01:42:07;;;;;;;9.40;5.60;;;;;;;;;;5007620;28;20400;-81
2022/05/03 01:44:39;;;;;;;12.17;5.90;;;;;;;;;;5007291;28;20448;-82
2022/05/03 01:47:25;;;;;;;6.83;5.73;;;;;;;;;;5007751;28;20487;-81
2022/05/03 01:50:20;;;;;;;6.90;5.37;;;;;;;;;;5007491;28;20440;-82
2022/05/03 01:52:58;;;;;;;9.00;5.60;;;;;;;;;;5007567;28;20973;-82
2022/05/03 01:55:31;;;;;;;6.50;5.20;;;;;;;;;;5007237;28;20415;-82
2022/05/03 01:58:03;;;;;;;8.70;7.13;;;;;;;;;;5007898;28;20511;-82
2022/05/03 02:00:29;;;;;;;11.43;6.10;;;;;;;;;;5007644;28;20519;-82
2022/05/03 02:03:07;;;;;;;7.07;5.57;;;;;;;;;;5006776;28;20501;-82
2022/05/03 02:05:47;;;;;;;6.87;5.63;;;;;;;;;;5009762;28;20400;-82
2022/05/03 02:08:18;;;;;;;6.30;5.67;;;;;;;;;;5010567;28;20389;-82
2022/05/03 02:10:57;;;;;;;6.20;5.20;;;;;;;;;;5008223;28;20392;-82
2022/05/03 02:14:43;;;;;;;8.70;5.63;;;;;;;;;;5007281;28;20389;-82
2022/05/03 02:16:28;;;;;;;6.83;5.70;;;;;;;;;;5011234;28;20480;-82
2022/05/03 02:19:17;;;;;;;6.50;4.73;;;;;;;;;;5011161;28;20471;-83
2022/05/03 02:21:58;;;;;;;10.43;5.40;;;;;;;;;;5001060;28;20419;-82
2022/05/03 02:24:32;;;;;;;5.67;4.20;;;;;;;;;;5009527;28;20392;-82
2022/05/03 02:27:18;;;;;;;7.70;4.10;;;;;;;;;;5008465;28;20443;-82
2022/05/03 02:29:46;;;;;;;5.27;4.30;;;;;;;;;;5004836;28;20455;-81
2022/05/03 02:32:30;;;;;;;4.90;4.30;;;;;;;;;;5001439;28;20416;-82
2022/05/03 02:35:02;;;;;;;4.90;4.40;;;;;;;;;;5006449;28;20450;-82
2022/05/03 02:37:35;;;;;;;5.60;4.53;;;;;;;;;;5006471;28;20408;-82
2022/05/03 02:40:03;;;;;;;5.60;4.70;;;;;;;;;;5012779;28;20459;-82
2022/05/03 02:42:30;;;;;;;5.30;3.80;;;;;;;;;;5020808;28;20415;-82
2022/05/03 02:44:57;;;;;;;8.20;4.30;;;;;;;;;;5025397;28;20912;-82
2022/05/03 02:47:38;;;;;;;5.30;4.30;;;;;;;;;;5024563;28;20414;-82
2022/05/03 02:50:13;;;;;;;5.90;4.30;;;;;;;;;;5053266;23;20584;-88
2022/05/03 02:52:57;;;;;;;6.00;5.17;;;;;;;;;;5040427;28;20473;-87
2022/05/03 02:55:47;;;;;;;6.80;4.97;;;;;;;;;;5041497;28;21012;-87
2022/05/03 02:58:19;;;;;;;5.03;3.97;;;;;;;;;;5011164;28;20469;-88
2022/05/03 03:03:49;;;;;;;6.80;4.30;;;;;;;;;;5022486;28;20371;-87
2022/05/03 03:06:22;;;;;;;6.30;5.00;;;;;;;;;;5022372;28;20403;-87
2022/05/03 03:08:50;;;;;;;7.53;4.20;;;;;;;;;;5022801;28;20406;-86
2022/05/03 03:11:17;;;;;;;7.87;4.27;;;;;;;;;;5017223;28;20438;-85
2022/05/03 03:14:10;;;;;;;5.60;4.00;;;;;;;;;;5019998;28;20415;-87
2022/05/03 03:16:41;;;;;;;5.03;3.70;;;;;;;;;;5020657;28;20980;-87
2022/05/03 03:19:22;;;;;;;9.10;4.13;;;;;;;;;;5020446;28;20442;-85
2022/05/03 03:21:49;;;;;;;5.90;4.77;;;;;;;;;;5020496;28;20784;-86
2022/05/03 03:24:16;;;;;;;8.03;4.87;;;;;;;;;;5019643;28;20407;-85
2022/05/03 03:26:44;;;;;;;5.00;4.43;;;;;;;;;;5019257;28;20502;-86
2022/05/03 03:29:11;;;;;;;9.37;4.70;;;;;;;;;;5031417;28;20424;-84
2022/05/03 03:31:37;;;;;;;7.53;4.90;;;;;;;;;;5039249;28;20423;-85
2022/05/03 03:34:05;;;;;;;7.40;4.50;;;;;;;;;;5032083;28;20415;-86
2022/05/03 03:36:32;;;;;;;7.73;5.70;;;;;;;;;;5022150;28;20470;-87
2022/05/03 03:38:58;;;;;;;5.23;4.70;;;;;;;;;;5021102;28;20489;-87
2022/05/03 03:41:24;;;;;;;8.90;5.90;;;;;;;;;;5021545;28;20450;-87
2022/05/03 03:43:52;;;;;;;6.73;5.50;;;;;;;;;;5021394;28;20454;-87
2022/05/03 03:46:18;;;;;;;6.77;5.07;;;;;;;;;;5021819;28;20411;-87
2022/05/03 03:48:44;;;;;;;10.60;6.00;;;;;;;;;;5021148;28;20457;-86
2022/05/03 03:51:11;;;;;;;7.43;5.20;;;;;;;;;;5021398;28;20466;-86
2022/05/03 03:53:38;;;;;;;6.77;5.40;;;;;;;;;;5021311;28;20553;-86
2022/05/03 03:56:04;;;;;;;7.27;5.23;;;;;;;;;;5021255;28;20934;-86
2022/05/03 03:58:30;;;;;;;6.20;4.60;;;;;;;;;;5019830;28;20988;-87
2022/05/03 04:00:57;;;;;;;6.47;5.87;;;;;;;;;;5020448;28;20490;-86
2022/05/03 04:03:24;;;;;;;8.13;4.90;;;;;;;;;;5021412;28;20411;-86
2022/05/03 04:05:50;;;;;;;10.13;5.40;;;;;;;;;;5021133;28;20413;-85
2022/05/03 04:08:16;;;;;;;6.07;5.13;;;;;;;;;;5021211;28;20435;-86
2022/05/03 04:10:43;;;;;;;9.10;5.40;;;;;;;;;;5021392;28;20427;-87
2022/05/03 04:13:13;;;;;;;7.20;5.63;;;;;;;;;;5021167;28;20423;-87
2022/05/03 04:15:39;;;;;;;6.97;4.57;;;;;;;;;;5021296;28;20411;-86
2022/05/03 04:18:09;;;;;;;6.80;4.90;;;;;;;;;;5021720;28;20427;-86
2022/05/03 04:20:35;;;;;;;5.93;5.20;;;;;;;;;;5034538;28;20502;-85
2022/05/03 04:23:01;;;;;;;9.30;5.20;;;;;;;;;;5034616;28;20418;-86
2022/05/03 04:25:27;;;;;;;6.93;4.93;;;;;;;;;;5034918;28;20408;-85
2022/05/03 04:27:54;;;;;;;10.40;5.07;;;;;;;;;;5034791;28;20399;-85
2022/05/03 04:30:20;;;;;;;6.67;5.10;;;;;;;;;;5027725;28;20431;-87
2022/05/03 04:32:46;;;;;;;4.57;4.07;;;;;;;;;;5023478;28;20406;-87
2022/05/03 04:35:12;;;;;;;4.70;4.27;;;;;;;;;;5022181;28;20455;-87
2022/05/03 04:37:38;;;;;;;6.70;4.53;;;;;;;;;;5028080;28;20403;-84
2022/05/03 04:40:04;;;;;;;5.20;4.43;;;;;;;;;;5034575;28;20462;-87
2022/05/03 04:42:31;;;;;;;6.60;5.60;;;;;;;;;;5022126;28;20465;-87
2022/05/03 04:44:57;;;;;;;11.03;6.60;;;;;;;;;;5021416;28;20750;-87
2022/05/03 04:47:23;;;;;;;8.00;5.60;;;;;;;;;;5026024;28;20411;-87
2022/05/03 04:49:49;;;;;;;5.63;4.53;;;;;;;;;;5022025;28;20533;-86
2022/05/03 04:52:15;;;;;;;8.10;5.00;;;;;;;;;;5019463;28;20396;-86
2022/05/03 04:54:41;;;;;;;6.87;4.60;;;;;;;;;;5016329;28;20430;-86
2022/05/03 04:57:07;;;;;;;4.37;3.97;;;;;;;;;;5017540;28;20482;-86
2022/05/03 04:59:34;;;;;;;5.43;4.60;;;;;;;;;;5016713;28;20450;-85
2022/05/03 05:02:00;;;;;;;5.57;4.03;;;;;;;;;;5032048;28;20453;-82
2022/05/03 05:04:26;;;;;;;5.10;4.23;;;;;;;;;;5039115;28;20474;-83
2022/05/03 05:06:52;;;;;;;5.30;3.83;;;;;;;;;;5039537;28;20425;-83
2022/05/03 05:09:18;;;;;;;4.77;4.27;;;;;;;;;;5036927;28;20449;-83
2022/05/03 05:11:44;;;;;;;5.40;4.17;;;;;;;;;;5039443;28;20441;-83
2022/05/03 05:14:10;;;;;;;6.00;4.47;;;;;;;;;;5039785;28;20463;-84
2022/05/03 05:16:37;;;;;;;6.10;3.83;;;;;;;;;;5040700;28;20418;-83
2022/05/03 05:19:03;;;;;;;5.83;4.90;;;;;;;;;;5038224;28;20446;-83
2022/05/03 05:21:29;;;;;;;5.20;3.73;;;;;;;;;;5037791;28;20442;-82
2022/05/03 05:23:55;;;;;;;6.22;4.10;;;;;;;;;;5040502;28;20408;-83
2022/05/03 05:26:21;;;;;;;5.13;3.83;;;;;;;;;;5038558;28;20172;-84
2022/05/03 05:28:47;;;;;;;4.20;3.77;;;;;;;;;;5038169;28;20426;-84
2022/05/03 05:31:13;;;;;;;5.57;4.37;;;;;;;;;;5037571;28;20430;-83
2022/05/03 05:33:39;;;;;;;5.37;4.17;;;;;;;;;;5037919;28;21041;-83
2022/05/03 05:36:05;;;;;;;6.07;4.57;;;;;;;;;;5037428;28;20437;-82
2022/05/03 05:38:31;;;;;;;4.40;4.00;;;;;;;;;;5038659;28;20903;-84
2022/05/03 05:40:57;;;;;;;7.20;4.30;;;;;;;;;;5040044;28;20809;-85
2022/05/03 05:43:23;;;;;;;5.90;4.20;;;;;;;;;;5037589;28;20422;-82
2022/05/03 05:45:49;;;;;;;7.63;4.27;;;;;;;;;;5039599;28;20417;-84
2022/05/03 05:48:15;;;;;;;9.83;4.23;;;;;;;;;;5042952;28;20425;-85
2022/05/03 05:50:42;;;;;;;5.90;4.20;;;;;;;;;;5039325;28;20472;-84
2022/05/03 05:55:53;;;;;;;7.13;5.00;;;;;;;;;;5038778;28;20451;-84
2022/05/03 05:58:19;;;;;;;7.50;5.47;;;;;;;;;;5039905;28;20457;-84
2022/05/03 06:00:46;;;;;;;7.40;4.53;;;;;;;;;;5039234;28;20450;-84
2022/05/03 06:03:14;;;;;;;6.83;5.00;;;;;;;;;;5039534;28;20834;-83
2022/05/03 06:05:40;;;;;;;11.13;6.27;;;;;;;;;;5039724;28;20417;-84
2022/05/03 06:08:06;;;;;;;8.40;5.20;;;;;;;;;;5039665;28;20398;-84
2022/05/03 06:10:33;;;;;;;6.17;4.70;;;;;;;;;;5034719;28;20779;-84
2022/05/03 06:13:00;;;;;;;6.90;4.70;;;;;;;;;;5035136;28;20425;-84
2022/05/03 06:15:26;;;;;;;5.60;4.90;;;;;;;;;;5038879;28;20177;-84
2022/05/03 06:17:53;;;;;;;5.80;4.40;;;;;;;;;;5039953;28;21204;-84
2022/05/03 06:20:19;;;;;;;6.07;3.90;;;;;;;;;;5040356;28;20460;-84
2022/05/03 06:22:45;;;;;;;5.40;3.83;;;;;;;;;;5038284;28;20422;-83
2022/05/03 06:25:11;;;;;;;5.97;4.77;;;;;;;;;;5040930;28;20465;-85
2022/05/03 06:27:38;;;;;;;5.23;4.50;;;;;;;;;;5044473;28;20420;-80
2022/05/03 06:30:05;;;;;;;5.60;4.20;;;;;;;;;;5052330;28;20437;-82
2022/05/03 06:32:31;;;;;;;7.23;5.00;;;;;;;;;;5031553;28;20403;-84
2022/05/03 06:34:57;;;;;;;5.33;4.23;;;;;;;;;;5018855;28;20403;-83
2022/05/03 06:37:23;;;;;;;5.30;4.40;;;;;;;;;;5020836;28;20407;-84
2022/05/03 06:39:49;;;;;;;5.77;4.87;;;;;;;;;;5031445;28;20957;-83
2022/05/03 06:42:16;;;;;;;6.30;4.13;;;;;;;;;;5043560;28;20414;-82
2022/05/03 06:44:42;;;;;;;4.53;4.10;;;;;;;;;;5034396;28;20406;-83
2022/05/03 06:47:08;;;;;;;4.80;3.97;;;;;;;;;;5033233;28;20417;-82
2022/05/03 06:49:35;;;;;;;4.73;4.10;;;;;;;;;;5035429;28;20498;-83
2022/05/03 06:52:01;;;;;;;5.85;3.78;;;;;;;;;;5036074;28;22207;-81
2022/05/03 06:54:27;;;;;;;6.27;3.57;;;;;;;;;;5036456;28;20207;-82
2022/05/03 06:56:53;;;;;;;4.17;3.67;;;;;;;;;;5037541;28;20418;-81
2022/05/03 06:59:19;;;;;;;4.70;4.10;;;;;;;;;;5034660;28;20432;-85
2022/05/03 07:01:45;;;;;;;10.37;3.33;;;;;;;;;;5040671;28;20438;-83
2022/05/03 07:04:11;;;;;;;6.80;3.30;;;;;;;;;;5041334;28;20481;-85
2022/05/03 07:06:37;;;;;;;6.80;3.50;;;;;;;;;;5045354;28;20415;-84
2022/05/03 07:09:03;;;;;;;6.00;3.53;;;;;;;;;;5064438;28;20425;-83
2022/05/03 07:11:30;;;;;;;6.87;3.43;;;;;;;;;;5042546;28;20465;-85
2022/05/03 07:13:57;;;;;;;5.57;3.47;;;;;;;;;;5058074;28;20405;-85
2022/05/03 07:16:23;;;;;;;5.73;3.50;;;;;;;;;;5048122;28;20421;-86
2022/05/03 07:24:18;;;;;;;2.83;2.53;;;;;;;;;;5048541;28;20465;-86
2022/05/03 07:26:44;;;;;;;6.47;3.60;;;;;;;;;;5056565;28;20791;-87
2022/05/03 07:29:11;;;;;;;3.67;3.13;;;;;;;;;;5042478;28;20505;-84
2022/05/03 07:31:41;;;;;;;5.60;3.40;;;;;;;;;;5046292;28;20500;-87
2022/05/03 07:34:07;;;;;;;4.57;3.07;;;;;;;;;;5056517;28;20406;-86
2022/05/03 07:36:33;;;;;;;3.53;2.63;;;;;;;;;;5047325;28;20421;-86
2022/05/03 07:39:02;;;;;;;6.43;3.20;;;;;;;;;;5050798;28;20450;-86
2022/05/03 07:41:28;;;;;;;5.73;2.77;;;;;;;;;;5040838;28;20434;-86
2022/05/03 07:43:54;;;;;;;4.00;2.80;;;;;;;;;;5039925;28;20417;-86
2022/05/03 07:46:20;;;;;;;2.87;2.10;;;;;;;;;;5057465;28;20477;-86
2022/05/03 07:48:46;;;;;;;3.43;2.87;;;;;;;;;;5045915;28;20426;-85
2022/05/03 07:51:13;;;;;;;4.63;3.00;;;;;;;;;;5050519;28;20455;-85
2022/05/03 07:53:39;;;;;;;4.23;2.57;;;;;;;;;;5047553;28;20782;-86
2022/05/03 07:56:06;;;;;;;3.97;3.57;;;;;;;;;;5047665;28;20413;-86
2022/05/03 07:58:32;;;;;;;5.77;3.60;;;;;;;;;;5055026;28;20458;-83
2022/05/03 08:00:58;;;;;;;4.23;3.13;;;;;;;;;;5041345;28;20805;-86
2022/05/03 08:03:24;;;;;;;5.13;3.33;;;;;;;;;;5049674;28;20508;-87
2022/05/03 08:05:50;;;;;;;4.27;2.90;;;;;;;;;;5050005;28;20467;-85
2022/05/03 08:08:16;;;;;;;4.30;3.47;;;;;;;;;;5040465;28;20410;-88
2022/05/03 08:10:45;;;;;;;6.20;3.30;;;;;;;;;;5040080;28;20767;-88
2022/05/03 08:13:11;;;;;;;3.67;2.90;;;;;;;;;;5044185;28;20632;-89
2022/05/03 08:15:38;;;;;;;9.53;3.63;;;;;;;;;;5053933;28;20440;-87
2022/05/03 08:18:05;;;;;;;5.23;3.50;;;;;;;;;;5041205;28;20415;-87
2022/05/03 08:20:31;;;;;;;8.77;3.13;;;;;;;;;;5044663;28;20531;-86
2022/05/03 08:22:57;;;;;;;3.17;2.63;;;;;;;;;;5050486;28;20402;-87
2022/05/03 08:25:23;;;;;;;4.03;2.70;;;;;;;;;;5055344;28;20494;-87
2022/05/03 08:27:49;;;;;;;5.13;3.00;;;;;;;;;;5040722;28;20430;-87
2022/05/03 08:30:15;;;;;;;4.60;3.23;;;;;;;;;;5048832;28;20468;-87
2022/05/03 08:32:41;;;;;;;3.07;2.70;;;;;;;;;;5049280;28;20498;-87
2022/05/03 08:35:07;;;;;;;3.47;2.33;;;;;;;;;;5043779;28;20423;-87
2022/05/03 08:43:04;;;;;;;6.50;2.70;;;;;;;;;;5053847;28;20459;-87
2022/05/03 08:45:30;;;;;;;3.40;2.50;;;;;;;;;;5049394;28;20783;-86
2022/05/03 08:47:57;;;;;;;3.23;2.40;;;;;;;;;;5043211;28;20432;-86
2022/05/03 08:50:29;;;;;;;4.63;2.90;;;;;;;;;;5046524;28;20465;-86
2022/05/03 08:53:00;;;;;;;3.87;2.47;;;;;;;;;;5050319;28;20418;-86
2022/05/03 08:55:27;;;;;;;3.50;2.60;;;;;;;;;;5054667;28;20421;-86
2022/05/03 08:57:53;;;;;;;3.80;2.93;;;;;;;;;;5045327;28;20495;-86
2022/05/03 09:00:20;;;;;;;5.03;2.90;;;;;;;;;;5056132;28;20465;-87
2022/05/03 09:02:47;;;;;;;3.83;3.10;;;;;;;;;;5041413;28;20476;-85
2022/05/03 09:05:14;;;;;;;5.00;2.77;;;;;;;;;;5049488;28;20468;-86
2022/05/03 09:07:47;;;;;;;4.30;2.97;;;;;;;;;;5048664;28;20407;-87
2022/05/03 09:10:18;;;;;;;5.00;2.93;;;;;;;;;;5043863;28;20434;-87
2022/05/03 09:12:44;;;;;;;4.27;2.17;;;;;;;;;;5049291;28;20413;-85
2022/05/03 09:15:17;;;;;;;4.13;2.73;;;;;;;;;;5054103;28;20437;-86
2022/05/03 09:17:45;;;;;;;3.47;2.67;;;;;;;;;;5048117;28;20409;-86
2022/05/03 09:25:55;;;;;;;6.63;3.27;;;;;;;;;;5064846;28;20834;-84
2022/05/03 09:28:23;;;;;;;5.00;2.97;;;;;;;;;;5061324;28;20576;-86
2022/05/03 09:30:50;;;;;;;4.83;3.00;;;;;;;;;;5059275;28;20480;-87
2022/05/03 09:33:25;;;;;;;7.77;3.30;;;;;;;;;;5056795;28;20489;-87
2022/05/03 09:35:51;;;;;;;6.03;3.83;;;;;;;;;;5054656;28;20386;-85
2022/05/03 09:38:18;;;;;;;6.17;3.70;;;;;;;;;;5057452;28;20433;-85
2022/05/03 09:40:47;;;;;;;4.80;3.70;;;;;;;;;;5044660;28;20417;-85
2022/05/03 09:43:14;;;;;;;5.83;3.80;;;;;;;;;;5053268;28;20868;-88
2022/05/03 09:45:40;;;;;;;4.93;3.80;;;;;;;;;;5061767;28;20393;-86
2022/05/03 09:48:07;;;;;;;4.80;3.83;;;;;;;;;;5061069;23;20792;-83
2022/05/03 09:50:33;;;;;;;6.90;4.10;;;;;;;;;;5041941;28;20547;-81
2022/05/03 09:53:09;;;;;;;5.90;3.90;;;;;;;;;;5044775;28;20385;-82
2022/05/03 09:55:39;;;;;;;7.90;4.00;;;;;;;;;;5049300;28;20481;-82
2022/05/03 09:58:07;;;;;;;5.63;3.93;;;;;;;;;;5058567;28;20433;-81
2022/05/03 10:00:34;;;;;;;4.70;3.90;;;;;;;;;;5042573;28;20607;-82
2022/05/03 10:03:01;;;;;;;6.80;3.73;;;;;;;;;;5052890;28;20410;-83
2022/05/03 10:05:27;;;;;;;6.70;3.50;;;;;;;;;;5062716;28;20413;-82
2022/05/03 10:07:53;;;;;;;4.97;3.13;;;;;;;;;;5044776;28;20501;-81
2022/05/03 10:10:29;;;;;;;4.30;3.90;;;;;;;;;;5057314;28;20799;-82
2022/05/03 10:12:56;;;;;;;4.30;3.40;;;;;;;;;;5051451;28;20397;-82
2022/05/03 10:21:00;;;;;;;6.37;3.50;;;;;;;;;;5049791;28;20400;-83
2022/05/03 10:23:32;;;;;;;3.80;3.40;;;;;;;;;;5049342;28;20402;-82
2022/05/03 10:25:59;;;;;;;4.27;3.50;;;;;;;;;;5057936;28;20406;-83
2022/05/03 10:28:26;;;;;;;5.97;3.70;;;;;;;;;;5046079;28;20567;-82
2022/05/03 10:31:14;;;;;;;5.87;3.80;;;;;;;;;;5054353;28;20413;-83
2022/05/03 10:33:41;;;;;;;5.07;3.27;;;;;;;;;;5044293;28;20395;-83
2022/05/03 10:36:26;;;;;;;5.63;3.53;;;;;;;;;;5062099;28;20397;-81
2022/05/03 10:38:52;;;;;;;5.60;3.90;;;;;;;;;;5058132;28;20478;-82
2022/05/03 10:41:24;;;;;;;4.97;4.20;;;;;;;;;;5054234;28;20406;-81
2022/05/03 10:43:50;;;;;;;4.57;3.60;;;;;;;;;;5064585;28;20429;-82
2022/05/03 10:46:20;;;;;;;5.00;3.20;;;;;;;;;;5053245;28;20444;-81
2022/05/03 10:49:04;;;;;;;4.83;4.10;;;;;;;;;;5059629;28;20481;-81
2022/05/03 10:51:30;;;;;;;4.73;3.33;;;;;;;;;;5063484;28;20483;-80
2022/05/03 10:54:00;;;;;;;6.53;3.90;;;;;;;;;;5055072;28;20468;-81
2022/05/03 10:56:26;;;;;;;6.67;4.20;;;;;;;;;;5060797;28;20445;-81
2022/05/03 10:59:10;;;;;;;8.03;4.90;;;;;;;;;;5052260;28;20999;-79
2022/05/03 11:01:55;;;;;;;4.77;4.27;;;;;;;;;;5055092;28;20487;-81
2022/05/03 11:04:21;;;;;;;5.37;4.40;;;;;;;;;;5047626;28;20420;-81
2022/05/03 11:06:49;;;;;;;5.20;3.80;;;;;;;;;;5047943;28;20407;-80
2022/05/03 11:09:25;;;;;;;4.17;3.77;;;;;;;;;;5034349;28;20476;-80
2022/05/03 11:11:56;;;;;;;7.87;4.87;;;;;;;;;;5059563;28;20461;-81
2022/05/03 11:14:22;;;;;;;7.53;4.90;;;;;;;;;;5047640;28;20402;-81
2022/05/03 11:16:49;;;;;;;6.57;4.83;;;;;;;;;;5051580;28;20413;-80
2022/05/03 11:19:16;;;;;;;6.33;4.73;;;;;;;;;;5050163;28;20544;-80
2022/05/03 11:21:50;;;;;;;6.00;4.70;;;;;;;;;;5044315;28;20491;-80
2022/05/03 11:24:37;;;;;;;5.03;4.13;;;;;;;;;;5042185;28;21006;-80
2022/05/03 11:27:06;;;;;;;6.30;4.47;;;;;;;;;;5045515;28;20434;-82
2022/05/03 11:29:33;;;;;;;7.00;4.60;;;;;;;;;;5059004;28;20997;-80
2022/05/03 11:32:01;;;;;;;6.73;4.07;;;;;;;;;;5049272;28;20429;-82
2022/05/03 11:34:27;;;;;;;5.97;4.43;;;;;;;;;;5060586;28;20418;-81
2022/05/03 11:36:53;;;;;;;18.67;5.57;;;;;;;;;;5055228;28;20411;-81
2022/05/03 11:39:20;;;;;;;12.93;3.80;;;;;;;;;;5053094;28;20824;-80
2022/05/03 11:41:47;;;;;;;5.20;3.93;;;;;;;;;;5059129;28;20413;-80
2022/05/03 11:44:14;;;;;;;5.07;4.10;;;;;;;;;;5049436;28;20413;-82
2022/05/03 11:46:42;;;;;;;10.37;6.07;;;;;;;;;;5065049;28;20948;-82
2022/05/03 11:49:12;;;;;;;6.70;5.50;;;;;;;;;;5052393;28;20461;-81
2022/05/03 11:57:20;;;;;;;8.10;6.10;;;;;;;;;;5044079;28;20397;-80
2022/05/03 11:59:46;;;;;;;7.47;5.90;;;;;;;;;;5047229;28;20461;-83
2022/05/03 12:02:19;;;;;;;7.40;6.53;;;;;;;;;;5045277;28;20430;-81
2022/05/03 12:05:18;;;;;;;18.53;14.27;;;;;;;;;;5046722;28;20401;-80
2022/05/03 12:07:46;;;;;;;8.67;7.13;;;;;;;;;;5034811;28;20438;-81
2022/05/03 12:10:25;;;;;;;11.00;7.80;;;;;;;;;;5046068;28;20422;-81
2022/05/03 12:13:08;;;;;;;8.23;7.27;;;;;;;;;;5047594;28;20405;-81
2022/05/03 12:15:35;;;;;;;7.50;6.53;;;;;;;;;;5046076;28;20447;-82
2022/05/03 12:18:01;;;;;;;7.43;6.53;;;;;;;;;;5047497;28;20458;-81
2022/05/03 12:20:40;;;;;;;7.60;6.80;;;;;;;;;;5046012;28;20492;-82
2022/05/03 12:23:25;;;;;;;7.83;6.87;;;;;;;;;;5047662;28;20394;-81
2022/05/03 12:26:01;;;;;;;7.37;6.53;;;;;;;;;;5046712;28;20395;-82
2022/05/03 12:28:37;;;;;;;7.80;7.00;;;;;;;;;;5045968;28;20457;-82
2022/05/03 12:31:04;;;;;;;6.53;5.93;;;;;;;;;;5045957;28;20425;-82
2022/05/03 12:33:30;;;;;;;8.27;6.63;;;;;;;;;;5048482;28;20429;-83
2022/05/03 12:35:56;;;;;;;9.63;6.63;;;;;;;;;;5047530;28;20414;-83
2022/05/03 12:38:26;;;;;;;9.67;6.23;;;;;;;;;;5043952;28;20502;-82
2022/05/03 12:40:53;;;;;;;7.77;6.97;;;;;;;;;;5048112;28;20786;-84
2022/05/03 12:43:21;;;;;;;8.30;6.83;;;;;;;;;;5038958;28;20454;-83
2022/05/03 12:46:04;;;;;;;7.10;5.90;;;;;;;;;;5044030;28;20442;-82
2022/05/03 12:48:36;;;;;;;7.77;6.60;;;;;;;;;;5047646;28;20466;-82
2022/05/03 12:51:02;;;;;;;10.33;7.80;;;;;;;;;;5046943;28;20402;-82
2022/05/03 12:53:32;;;;;;;8.00;7.00;;;;;;;;;;5047704;28;20450;-82
2022/05/03 12:58:44;;;;;;;10.33;7.23;;;;;;;;;;5046020;28;20898;-83
2022/05/03 13:01:11;;;;;;;7.90;7.07;;;;;;;;;;5047038;28;20414;-81
2022/05/03 13:03:38;;;;;;;9.13;6.97;;;;;;;;;;5042266;28;20422;-83
2022/05/03 13:06:04;;;;;;;8.80;7.90;;;;;;;;;;5044927;28;20466;-81
2022/05/03 13:08:30;;;;;;;16.77;7.87;;;;;;;;;;5043834;28;20456;-81
2022/05/03 13:10:56;;;;;;;8.97;6.37;;;;;;;;;;5044860;28;20436;-81
2022/05/03 13:13:24;;;;;;;7.63;6.23;;;;;;;;;;5046207;28;20476;-81
2022/05/03 13:15:50;;;;;;;10.10;7.57;;;;;;;;;;5044841;28;20549;-82
2022/05/03 13:18:16;;;;;;;10.10;7.33;;;;;;;;;;5044174;28;20486;-81
2022/05/03 13:20:43;;;;;;;10.43;6.70;;;;;;;;;;5043184;28;20476;-81
2022/05/03 13:23:10;;;;;;;8.07;6.30;;;;;;;;;;5043067;28;20422;-83
2022/05/03 13:25:36;;;;;;;8.23;6.50;;;;;;;;;;5041808;28;20434;-82
2022/05/03 13:28:02;;;;;;;7.70;5.50;;;;;;;;;;5040093;28;20450;-82
2022/05/03 13:30:29;;;;;;;9.47;7.40;;;;;;;;;;5047646;28;20420;-82
2022/05/03 13:32:55;;;;;;;7.17;5.63;;;;;;;;;;5046992;28;20437;-82
2022/05/03 13:40:28;;;;;;;6.63;5.93;;;;;;;;;;5047071;28;20417;-82
2022/05/03 13:40:51;;;;;;;7.27;5.83;;;;;;;;;;5040166;28;20445;-82
2022/05/03 13:43:18;;;;;;;8.63;5.70;;;;;;;;;;5047046;28;20414;-82
2022/05/03 13:45:44;;;;;;;7.63;6.83;;;;;;;;;;5044879;28;20777;-82
2022/05/03 13:48:10;;;;;;;6.77;6.07;;;;;;;;;;5045418;28;20473;-82
2022/05/03 13:50:38;;;;;;;7.37;6.30;;;;;;;;;;5043609;28;20423;-82
2022/05/03 13:53:05;;;;;;;8.65;6.40;;;;;;;;;;5042142;28;20886;-82
2022/05/03 13:55:31;;;;;;;6.50;5.00;;;;;;;;;;5045539;28;20517;-83
2022/05/03 13:57:57;;;;;;;7.73;4.60;;;;;;;;;;5045531;28;20913;-83
2022/05/03 14:00:23;;;;;;;5.57;4.50;;;;;;;;;;5044139;28;20476;-82
2022/05/03 14:02:49;;;;;;;4.53;4.13;;;;;;;;;;5046057;28;20406;-84
2022/05/03 14:05:15;;;;;;;5.50;4.83;;;;;;;;;;5042231;28;20461;-83
2022/05/03 14:07:43;;;;;;;6.83;5.73;;;;;;;;;;5046269;28;20418;-82
2022/05/03 14:10:09;;;;;;;6.60;5.67;;;;;;;;;;5044762;28;20907;-83
2022/05/03 14:12:36;;;;;;;6.30;5.00;;;;;;;;;;5045804;28;20408;-82
2022/05/03 14:15:02;;;;;;;6.20;5.60;;;;;;;;;;5047861;28;20414;-82
2022/05/03 14:17:28;;;;;;;6.57;4.90;;;;;;;;;;5046042;28;20419;-83
2022/05/03 14:19:54;;;;;;;9.20;5.27;;;;;;;;;;5047202;28;20861;-82
2022/05/03 14:22:21;;;;;;;5.20;4.20;;;;;;;;;;5043562;28;20766;-82
2022/05/03 14:24:47;;;;;;;5.27;4.17;;;;;;;;;;5045417;28;20406;-82
2022/05/03 14:27:14;;;;;;;3.90;3.50;;;;;;;;;;5045979;28;20398;-81
2022/05/03 14:29:40;;;;;;;6.60;4.10;;;;;;;;;;5039490;28;20402;-81
2022/05/03 14:32:06;;;;;;;5.50;4.80;;;;;;;;;;5044432;28;20399;-82
2022/05/03 14:34:34;;;;;;;5.53;4.43;;;;;;;;;;5047448;28;20779;-83
2022/05/03 14:37:00;;;;;;;6.03;3.90;;;;;;;;;;5048652;28;20387;-82
2022/05/03 14:39:28;;;;;;;5.77;3.83;;;;;;;;;;5045506;28;20450;-83
2022/05/03 14:41:55;;;;;;;5.93;4.50;;;;;;;;;;5043685;28;20444;-83
2022/05/03 14:44:21;;;;;;;6.23;4.20;;;;;;;;;;5044398;28;20465;-82
2022/05/03 14:46:47;;;;;;;4.33;3.93;;;;;;;;;;5043637;28;20781;-80
2022/05/03 14:49:14;;;;;;;4.30;3.23;;;;;;;;;;5043065;28;20450;-82
2022/05/03 14:51:40;;;;;;;4.33;3.30;;;;;;;;;;5043574;28;20423;-82
2022/05/03 14:54:06;;;;;;;4.93;3.23;;;;;;;;;;5041259;28;20548;-82
2022/05/03 15:04:47;;;;;;;5.60;4.23;;;;;;;;;;5047816;28;20460;-83
2022/05/03 15:07:14;;;;;;;5.70;3.53;;;;;;;;;;5046060;28;20413;-83
2022/05/03 15:09:41;;;;;;;4.80;3.60;;;;;;;;;;5045588;28;20509;-83
2022/05/03 15:12:08;;;;;;;5.47;3.27;;;;;;;;;;5047256;28;20805;-82
2022/05/03 15:14:35;;;;;;;7.83;4.17;;;;;;;;;;5050391;28;20444;-81
2022/05/03 15:17:01;;;;;;;4.93;3.17;;;;;;;;;;5049733;28;20410;-83
2022/05/03 15:19:27;;;;;;;7.20;3.07;;;;;;;;;;5047443;28;20953;-83
2022/05/03 15:21:53;;;;;;;4.80;3.60;;;;;;;;;;5047148;28;20426;-83
2022/05/03 15:24:38;;;;;;;5.77;3.00;;;;;;;;;;5051658;28;20425;-82
2022/05/03 15:27:08;;;;;;;7.37;3.10;;;;;;;;;;5050933;28;20419;-83
2022/05/03 15:29:35;;;;;;;6.17;3.40;;;;;;;;;;5050442;28;20771;-83
2022/05/03 15:32:17;;;;;;;4.97;3.40;;;;;;;;;;5049268;28;20502;-83
2022/05/03 15:34:43;;;;;;;5.17;3.47;;;;;;;;;;5051332;28;20422;-83
2022/05/03 15:37:09;;;;;;;5.23;3.13;;;;;;;;;;5051830;28;20459;-83
2022/05/03 15:39:35;;;;;;;4.97;3.20;;;;;;;;;;5052360;28;20461;-83
2022/05/03 15:42:02;;;;;;;4.20;3.23;;;;;;;;;;5049131;28;20470;-82
2022/05/03 15:44:28;;;;;;;4.10;3.10;;;;;;;;;;5050955;28;20423;-83
2022/05/03 15:46:54;;;;;;;3.43;2.87;;;;;;;;;;5051262;28;20427;-83